createdAt,value
2023-02-05T00:01:25.176Z,6.75
2023-02-05T00:03:51.933Z,6.82
2023-02-05T00:06:18.909Z,8.07
2023-02-05T00:08:45.581Z,7.13
2023-02-05T00:11:12.532Z,6.95
2023-02-05T00:13:40.253Z,6.78
2023-02-05T00:16:14.344Z,6.60
2023-02-05T00:18:41.180Z,6.60
2023-02-05T00:21:08.445Z,5.82
2023-02-05T00:23:35.649Z,6.93
2023-02-05T00:26:03.832Z,7.22
2023-02-05T00:28:34.826Z,7.40
2023-02-05T00:31:02.123Z,6.60
2023-02-05T00:33:29.377Z,6.18
2023-02-05T00:35:56.075Z,6.40
2023-02-05T00:38:23.797Z,5.97
2023-02-05T00:40:50.758Z,6.35
2023-02-05T00:43:17.525Z,7.20
2023-02-05T00:45:44.405Z,6.45
2023-02-05T00:48:11.359Z,7.15
2023-02-05T00:50:38.205Z,7.95
2023-02-05T00:53:05.067Z,6.93
2023-02-05T00:55:31.985Z,6.53
2023-02-05T00:57:58.787Z,6.55
2023-02-05T01:00:27.310Z,7.15
2023-02-05T01:02:54.967Z,6.45
2023-02-05T01:05:21.951Z,6.85
2023-02-05T01:07:48.843Z,6.80
2023-02-05T01:10:15.732Z,6.38
2023-02-05T01:12:42.475Z,6.85
2023-02-05T01:15:10.228Z,7.80
2023-02-05T01:17:36.966Z,6.95
2023-02-05T01:20:04.247Z,6.80
2023-02-05T01:22:31.068Z,7.22
2023-02-05T01:24:57.888Z,6.90
2023-02-05T01:27:24.575Z,6.65
2023-02-05T01:29:52.003Z,7.13
2023-02-05T01:32:18.976Z,6.30
2023-02-05T01:34:46.008Z,6.50
2023-02-05T01:37:13.292Z,6.97
2023-02-05T01:39:40.344Z,6.70
2023-02-05T01:42:27.745Z,6.35
2023-02-05T01:45:36.787Z,6.50
2023-02-05T01:48:04.943Z,6.38
2023-02-05T01:50:35.669Z,6.53
2023-02-05T01:53:14.266Z,5.97
2023-02-05T01:55:44.831Z,6.78
2023-02-05T01:58:11.891Z,6.65
2023-02-05T02:00:38.706Z,7.05
2023-02-05T02:03:05.540Z,6.20
2023-02-05T02:05:33.082Z,7.00
2023-02-05T02:08:00.139Z,5.93
2023-02-05T02:10:26.919Z,6.93
2023-02-05T02:12:54.072Z,7.28
2023-02-05T02:15:24.073Z,8.65
2023-02-05T02:17:53.410Z,11.57
2023-02-05T02:20:26.238Z,10.93
2023-02-05T02:22:55.975Z,10.63
2023-02-05T02:26:19.885Z,9.43
2023-02-05T02:28:51.963Z,8.07
2023-02-05T02:31:22.995Z,7.88
2023-02-05T02:34:00.985Z,7.03
2023-02-05T02:36:37.251Z,6.85
2023-02-05T02:39:07.695Z,6.57
2023-02-05T02:41:43.715Z,6.38
2023-02-05T02:44:13.466Z,6.07
2023-02-05T02:46:52.174Z,6.15
2023-02-05T02:49:23.320Z,5.70
2023-02-05T02:51:50.325Z,6.32
2023-02-05T02:54:18.048Z,6.07
2023-02-05T02:56:44.784Z,6.10
2023-02-05T02:59:17.506Z,6.30
2023-02-05T03:01:53.336Z,6.28
2023-02-05T03:04:54.715Z,7.35
2023-02-05T03:07:23.752Z,6.80
2023-02-05T03:09:58.377Z,5.75
2023-02-05T03:12:25.334Z,6.00
2023-02-05T03:14:53.122Z,5.90
2023-02-05T03:17:20.750Z,5.97
2023-02-05T03:19:49.045Z,6.25
2023-02-05T03:22:16.076Z,5.72
2023-02-05T03:24:43.126Z,5.25
2023-02-05T03:27:10.075Z,5.50
2023-02-05T03:29:44.676Z,5.40
2023-02-05T03:32:22.400Z,5.80
2023-02-05T03:35:27.639Z,6.40
2023-02-05T03:38:09.041Z,5.38
2023-02-05T03:40:55.593Z,5.43
2023-02-05T03:43:31.072Z,5.40
2023-02-05T03:46:22.704Z,6.00
2023-02-05T03:49:23.266Z,5.55
2023-02-05T03:52:03.431Z,5.72
2023-02-05T03:54:56.832Z,5.45
2023-02-05T03:57:33.806Z,5.80
2023-02-05T04:00:00.488Z,6.70
2023-02-05T04:02:27.459Z,5.88
2023-02-05T04:04:54.233Z,5.85
2023-02-05T04:07:20.972Z,5.40
2023-02-05T04:09:47.825Z,5.78
2023-02-05T04:12:14.576Z,5.30
2023-02-05T04:14:41.417Z,5.68
2023-02-05T04:17:08.668Z,5.68
2023-02-05T04:19:35.820Z,5.55
2023-02-05T04:22:02.562Z,6.35
2023-02-05T04:24:29.417Z,6.57
2023-02-05T04:26:56.997Z,6.13
2023-02-05T04:29:23.750Z,5.95
2023-02-05T04:31:50.483Z,6.00
2023-02-05T04:34:17.206Z,6.22
2023-02-05T04:36:44.037Z,6.05
2023-02-05T04:39:10.784Z,6.15
2023-02-05T04:41:37.781Z,6.13
2023-02-05T04:44:06.193Z,6.22
2023-02-05T04:46:33.001Z,6.30
2023-02-05T04:49:01.101Z,5.60
2023-02-05T04:51:28.374Z,6.28
2023-02-05T04:53:55.183Z,5.88
2023-02-05T04:56:21.902Z,6.28
2023-02-05T04:58:49.006Z,6.63
2023-02-05T05:01:20.757Z,5.95
2023-02-05T05:03:47.944Z,5.68
2023-02-05T05:06:15.482Z,6.57
2023-02-05T05:08:42.296Z,5.55
2023-02-05T05:11:17.648Z,6.38
2023-02-05T05:13:44.693Z,5.95
2023-02-05T05:16:13.037Z,6.45
2023-02-05T05:18:40.856Z,6.85
2023-02-05T05:21:07.884Z,5.65
2023-02-05T05:23:35.983Z,6.82
2023-02-05T05:26:07.138Z,7.07
2023-02-05T05:28:35.003Z,6.30
2023-02-05T05:31:19.758Z,6.20
2023-02-05T05:33:47.361Z,5.75
2023-02-05T05:36:14.690Z,6.68
2023-02-05T05:38:41.581Z,5.80
2023-02-05T05:41:26.814Z,5.70
2023-02-05T05:43:54.517Z,6.90
2023-02-05T05:46:23.881Z,5.65
2023-02-05T05:48:52.429Z,6.80
2023-02-05T05:51:19.616Z,6.38
2023-02-05T05:53:46.624Z,7.03
2023-02-05T05:56:14.470Z,6.22
2023-02-05T05:58:41.519Z,6.70
2023-02-05T06:01:09.051Z,7.15
2023-02-05T06:03:36.026Z,6.43
2023-02-05T06:06:04.456Z,6.32
2023-02-05T06:08:31.530Z,6.78
2023-02-05T06:10:58.689Z,6.78
2023-02-05T06:13:25.778Z,6.55
2023-02-05T06:15:54.893Z,6.47
2023-02-05T06:18:23.703Z,6.28
2023-02-05T06:20:50.814Z,5.85
2023-02-05T06:23:17.818Z,5.88
2023-02-05T06:25:45.315Z,6.53
2023-02-05T06:28:12.911Z,6.47
2023-02-05T06:30:39.819Z,6.63
2023-02-05T06:33:06.634Z,6.97
2023-02-05T06:35:33.708Z,6.53
2023-02-05T06:38:00.724Z,6.88
2023-02-05T06:40:28.618Z,7.13
2023-02-05T06:42:55.914Z,6.53
2023-02-05T06:45:23.253Z,6.68
2023-02-05T06:47:50.390Z,8.05
2023-02-05T06:50:17.140Z,7.50
2023-02-05T06:52:44.600Z,6.22
2023-02-05T06:55:11.397Z,6.32
2023-02-05T06:57:38.119Z,6.15
2023-02-05T07:00:06.227Z,5.97
2023-02-05T07:02:33.164Z,7.45
2023-02-05T07:05:03.247Z,5.75
2023-02-05T07:07:30.163Z,5.85
2023-02-05T07:09:57.007Z,5.93
2023-02-05T07:12:23.770Z,5.85
2023-02-05T07:14:50.488Z,5.65
2023-02-05T07:17:17.256Z,6.10
2023-02-05T07:19:44.418Z,6.07
2023-02-05T07:22:13.916Z,6.85
2023-02-05T07:24:40.647Z,6.53
2023-02-05T07:27:07.447Z,7.07
2023-02-05T07:29:34.153Z,6.40
2023-02-05T07:32:00.875Z,6.90
2023-02-05T07:34:27.689Z,6.50
2023-02-05T07:36:54.448Z,7.28
2023-02-05T07:39:21.226Z,6.70
2023-02-05T07:41:48.222Z,10.90
2023-02-05T07:44:14.963Z,7.53
2023-02-05T07:46:41.682Z,6.68
2023-02-05T07:49:08.539Z,6.75
2023-02-05T07:51:35.480Z,6.22
2023-02-05T07:54:06.880Z,5.47
2023-02-05T07:56:33.663Z,6.20
2023-02-05T07:59:00.846Z,6.07
2023-02-05T08:01:27.739Z,6.10
2023-02-05T08:03:54.494Z,6.93
2023-02-05T08:06:21.202Z,6.55
2023-02-05T08:08:47.947Z,6.55
2023-02-05T08:11:16.515Z,6.68
2023-02-05T08:13:44.201Z,6.90
2023-02-05T08:16:11.695Z,7.05
2023-02-05T08:18:38.788Z,6.50
2023-02-05T08:21:05.802Z,6.65
2023-02-05T08:23:32.680Z,6.20
2023-02-05T08:25:59.955Z,6.25
2023-02-05T08:28:27.683Z,5.93
2023-02-05T08:30:56.658Z,5.82
2023-02-05T08:33:23.740Z,6.88
2023-02-05T08:35:50.461Z,6.07
2023-02-05T08:38:17.191Z,6.18
2023-02-05T08:40:44.292Z,6.28
2023-02-05T08:43:11.605Z,7.22
2023-02-05T08:45:39.010Z,7.45
2023-02-05T08:48:05.948Z,5.95
2023-02-05T08:50:32.783Z,6.97
2023-02-05T08:52:59.557Z,6.88
2023-02-05T08:55:26.639Z,6.47
2023-02-05T08:57:53.604Z,6.75
2023-02-05T09:00:21.495Z,5.72
2023-02-05T09:02:48.253Z,6.22
2023-02-05T09:05:18.204Z,5.82
2023-02-05T09:07:44.936Z,6.20
2023-02-05T09:10:13.111Z,6.07
2023-02-05T09:12:40.185Z,7.05
2023-02-05T09:15:08.139Z,7.10
2023-02-05T09:17:35.036Z,6.82
2023-02-05T09:20:01.796Z,6.85
2023-02-05T09:22:28.533Z,7.05
2023-02-05T09:24:55.293Z,7.38
2023-02-05T09:27:22.083Z,7.80
2023-02-05T09:29:48.863Z,7.68
2023-02-05T09:32:15.704Z,8.43
2023-02-05T09:34:42.562Z,7.57
2023-02-05T09:37:09.470Z,7.95
2023-02-05T09:40:17.672Z,9.50
2023-02-05T09:42:37.314Z,7.82
2023-02-05T09:45:39.175Z,9.38
2023-02-05T09:48:38.474Z,7.80
2023-02-05T09:51:05.393Z,8.60
2023-02-05T09:53:37.585Z,8.13
2023-02-05T09:56:04.894Z,8.47
2023-02-05T09:58:31.650Z,8.88
2023-02-05T10:01:03.601Z,7.88
2023-02-05T10:03:44.684Z,8.82
2023-02-05T10:06:35.910Z,8.77
2023-02-05T10:09:40.472Z,9.27
2023-02-05T10:12:13.242Z,8.80
2023-02-05T10:14:52.029Z,9.05
2023-02-05T10:17:22.266Z,9.90
2023-02-05T10:20:20.401Z,9.07
2023-02-05T10:23:25.646Z,9.93
2023-02-05T10:26:30.921Z,9.38
2023-02-05T10:29:19.944Z,10.57
2023-02-05T10:31:56.330Z,10.77
2023-02-05T10:34:52.714Z,12.48
2023-02-05T10:37:21.868Z,13.23
2023-02-05T10:39:49.806Z,11.82
2023-02-05T10:42:29.862Z,9.23
2023-02-05T10:45:01.619Z,9.65
2023-02-05T10:48:02.308Z,10.20
2023-02-05T10:50:53.996Z,10.07
2023-02-05T10:53:23.063Z,9.27
2023-02-05T10:55:50.262Z,9.38
2023-02-05T10:58:39.833Z,10.20
2023-02-05T11:01:25.876Z,10.35
2023-02-05T11:04:32.525Z,9.50
2023-02-05T11:07:00.391Z,9.18
2023-02-05T11:09:29.268Z,10.40
2023-02-05T11:12:10.245Z,11.63
2023-02-05T11:14:38.188Z,9.90
2023-02-05T11:17:27.136Z,10.07
2023-02-05T11:20:05.866Z,10.48
2023-02-05T11:22:37.386Z,10.27
2023-02-05T11:25:15.278Z,10.48
2023-02-05T11:27:42.274Z,10.63
2023-02-05T11:30:47.566Z,10.65
2023-02-05T11:33:17.488Z,9.80
2023-02-05T11:36:01.821Z,9.38
2023-02-05T11:38:33.425Z,10.25
2023-02-05T11:41:03.337Z,9.85
2023-02-05T11:43:36.811Z,9.57
2023-02-05T11:46:10.700Z,9.52
2023-02-05T11:48:38.216Z,9.55
2023-02-05T11:51:06.388Z,10.20
2023-02-05T11:53:33.346Z,9.52
2023-02-05T11:56:02.332Z,9.93
2023-02-05T11:58:36.810Z,9.50
2023-02-05T12:01:24.119Z,10.57
2023-02-05T12:04:03.882Z,11.35
2023-02-05T12:06:37.207Z,14.35
2023-02-05T12:09:04.319Z,12.95
2023-02-05T12:11:58.014Z,10.95
2023-02-05T12:14:41.868Z,9.98
2023-02-05T12:17:24.690Z,10.35
2023-02-05T12:20:09.832Z,9.48
2023-02-05T12:22:53.568Z,10.27
2023-02-05T12:25:51.838Z,9.75
2023-02-05T12:28:46.061Z,10.52
2023-02-05T12:31:40.753Z,10.63
2023-02-05T12:34:43.586Z,11.93
2023-02-05T12:37:29.082Z,12.25
2023-02-05T12:40:34.562Z,14.38
2023-02-05T12:43:20.179Z,11.50
2023-02-05T12:45:56.150Z,13.23
2023-02-05T12:48:42.349Z,13.65
2023-02-05T12:51:19.243Z,14.88
2023-02-05T12:54:08.019Z,12.80
2023-02-05T12:57:07.327Z,14.52
2023-02-05T12:59:40.350Z,13.00
2023-02-05T13:02:25.488Z,13.18
2023-02-05T13:05:07.144Z,13.23
2023-02-05T13:07:41.031Z,11.52
2023-02-05T13:10:28.826Z,11.73
2023-02-05T13:12:59.877Z,11.50
2023-02-05T13:15:49.914Z,12.25
2023-02-05T13:18:23.241Z,11.35
2023-02-05T13:21:14.591Z,11.73
2023-02-05T13:23:59.889Z,11.63
2023-02-05T13:26:52.109Z,13.77
2023-02-05T13:29:19.983Z,14.98
2023-02-05T13:31:51.504Z,13.52
2023-02-05T13:34:19.730Z,12.02
2023-02-05T13:37:00.478Z,15.10
2023-02-05T13:39:34.822Z,14.23
2023-02-05T13:42:12.856Z,15.05
2023-02-05T13:44:55.280Z,13.70
2023-02-05T13:47:34.157Z,12.50
2023-02-05T13:50:23.356Z,12.38
2023-02-05T13:53:06.536Z,13.45
2023-02-05T13:58:12.699Z,14.05
2023-02-05T14:03:35.714Z,12.50
2023-02-05T14:06:15.584Z,10.35
2023-02-05T14:08:42.831Z,9.93
2023-02-05T14:11:09.627Z,11.73
2023-02-05T14:13:36.525Z,9.27
2023-02-05T14:16:25.721Z,7.40
2023-02-05T14:19:01.808Z,5.80
2023-02-05T14:21:31.581Z,6.30
2023-02-05T14:24:03.031Z,4.88
2023-02-05T14:26:46.637Z,4.90
2023-02-05T14:29:45.534Z,6.78
2023-02-05T14:32:27.589Z,6.05
2023-02-05T14:35:22.092Z,4.63
2023-02-05T14:37:49.984Z,5.82
2023-02-05T14:40:37.382Z,5.38
2023-02-05T14:43:46.932Z,5.88
2023-02-05T14:46:29.250Z,5.50
2023-02-05T14:48:58.443Z,6.30
2023-02-05T14:51:39.210Z,6.13
2023-02-05T14:54:12.383Z,6.93
2023-02-05T14:56:46.911Z,6.90
2023-02-05T14:59:30.566Z,6.10
2023-02-05T15:01:58.240Z,5.15
2023-02-05T15:04:49.497Z,5.53
2023-02-05T15:07:20.925Z,5.38
2023-02-05T15:09:54.132Z,5.28
2023-02-05T15:12:39.992Z,6.22
2023-02-05T15:15:39.286Z,6.13
2023-02-05T15:18:29.904Z,5.35
2023-02-05T15:20:56.844Z,5.72
2023-02-05T15:23:29.522Z,4.93
2023-02-05T15:26:01.295Z,7.03
2023-02-05T15:28:41.088Z,5.43
2023-02-05T15:31:15.287Z,6.25
2023-02-05T15:34:06.571Z,5.63
2023-02-05T15:36:42.550Z,5.20
2023-02-05T15:39:20.222Z,6.22
2023-02-05T15:41:47.579Z,7.10
2023-02-05T15:44:28.138Z,6.80
2023-02-05T15:46:54.970Z,6.90
2023-02-05T15:49:25.966Z,7.22
2023-02-05T15:51:52.777Z,6.72
2023-02-05T15:54:21.578Z,7.38
2023-02-05T15:56:50.678Z,8.15
2023-02-05T15:59:28.179Z,7.57
2023-02-05T16:02:07.358Z,7.18
2023-02-05T16:04:40.388Z,7.45
2023-02-05T16:07:19.496Z,8.15
2023-02-05T16:09:56.510Z,7.28
2023-02-05T16:12:23.569Z,7.57
2023-02-05T16:15:04.930Z,7.85
2023-02-05T16:17:44.274Z,7.97
2023-02-05T16:20:28.635Z,9.20
2023-02-05T16:22:59.182Z,8.90
2023-02-05T16:25:28.934Z,10.18
2023-02-05T16:27:56.244Z,9.63
2023-02-05T16:30:41.121Z,9.70
2023-02-05T16:33:16.438Z,8.32
2023-02-05T16:35:48.771Z,8.50
2023-02-05T16:38:17.241Z,9.05
2023-02-05T16:40:49.668Z,8.98
2023-02-05T16:43:25.853Z,9.52
2023-02-05T16:46:04.379Z,10.52
2023-02-05T16:48:31.923Z,10.48
2023-02-05T16:50:59.456Z,9.60
2023-02-05T16:53:33.651Z,9.73
2023-02-05T16:56:02.922Z,9.15
2023-02-05T16:58:36.886Z,9.00
2023-02-05T17:01:07.563Z,9.90
2023-02-05T17:03:42.808Z,10.65
2023-02-05T17:06:14.365Z,10.30
2023-02-05T17:08:41.470Z,10.65
2023-02-05T17:11:32.728Z,10.98
2023-02-05T17:14:13.899Z,11.00
2023-02-05T17:16:41.725Z,10.73
2023-02-05T17:19:28.186Z,11.95
2023-02-05T17:22:15.498Z,13.02
2023-02-05T17:24:42.849Z,14.23
2023-02-05T17:27:17.495Z,14.82
2023-02-05T17:29:44.509Z,16.33
2023-02-05T17:32:18.290Z,16.02
2023-02-05T17:34:45.619Z,15.27
2023-02-05T17:37:13.047Z,14.43
2023-02-05T17:39:40.156Z,18.50
2023-02-05T17:42:10.427Z,19.48
2023-02-05T17:44:37.214Z,22.23
2023-02-05T17:47:04.928Z,21.33
2023-02-05T17:49:31.745Z,19.38
2023-02-05T17:51:58.605Z,16.35
2023-02-05T17:54:25.964Z,17.35
2023-02-05T17:56:55.069Z,20.50
2023-02-05T17:59:23.308Z,19.70
2023-02-05T18:01:50.777Z,17.27
2023-02-05T18:04:18.787Z,12.35
2023-02-05T18:06:47.258Z,18.38
2023-02-05T18:09:14.187Z,19.48
2023-02-05T18:11:41.152Z,17.23
2023-02-05T18:14:08.632Z,18.98
2023-02-05T18:16:35.480Z,14.82
2023-02-05T18:19:02.337Z,13.65
2023-02-05T18:21:29.129Z,10.05
2023-02-05T18:23:55.915Z,11.10
2023-02-05T18:26:22.825Z,13.48
2023-02-05T18:28:50.062Z,13.50
2023-02-05T18:31:16.838Z,11.07
2023-02-05T18:33:58.129Z,10.07
2023-02-05T18:36:24.861Z,10.25
2023-02-05T18:38:51.631Z,9.48
2023-02-05T18:41:23.217Z,8.30
2023-02-05T18:43:53.955Z,8.48
2023-02-05T18:46:21.270Z,8.88
2023-02-05T18:48:50.821Z,8.57
2023-02-05T18:51:19.418Z,9.25
2023-02-05T18:53:47.542Z,10.00
2023-02-05T18:56:40.720Z,10.95
2023-02-05T18:59:08.579Z,9.93
2023-02-05T19:01:39.714Z,11.25
2023-02-05T19:04:09.612Z,10.93
2023-02-05T19:06:36.467Z,11.27
2023-02-05T19:09:03.822Z,10.50
2023-02-05T19:11:30.996Z,10.90
2023-02-05T19:14:00.206Z,10.27
2023-02-05T19:16:27.492Z,10.93
2023-02-05T19:18:54.853Z,10.32
2023-02-05T19:21:22.985Z,11.60
2023-02-05T19:23:51.966Z,11.65
2023-02-05T19:26:20.725Z,12.48
2023-02-05T19:28:51.663Z,12.07
2023-02-05T19:31:18.452Z,11.98
2023-02-05T19:33:46.570Z,12.57
2023-02-05T19:36:13.481Z,10.98
2023-02-05T19:38:41.236Z,11.60
2023-02-05T19:41:09.811Z,12.25
2023-02-05T19:43:36.577Z,12.70
2023-02-05T19:46:06.923Z,14.95
2023-02-05T19:48:34.473Z,14.38
2023-02-05T19:51:06.118Z,13.93
2023-02-05T19:53:33.319Z,14.90
2023-02-05T19:56:07.166Z,12.85
2023-02-05T19:58:38.911Z,12.68
2023-02-05T20:01:15.895Z,13.35
2023-02-05T20:03:44.945Z,14.40
2023-02-05T20:06:13.208Z,14.43
2023-02-05T20:08:40.128Z,14.98
2023-02-05T20:11:06.899Z,15.57
2023-02-05T20:13:34.780Z,15.25
2023-02-05T20:16:03.442Z,15.10
2023-02-05T20:18:30.701Z,17.27
2023-02-05T20:20:57.797Z,15.32
2023-02-05T20:23:25.732Z,15.13
2023-02-05T20:25:54.547Z,15.43
2023-02-05T20:28:21.216Z,15.43
2023-02-05T20:31:06.596Z,14.73
2023-02-05T20:33:33.403Z,15.75
2023-02-05T20:36:07.044Z,15.07
2023-02-05T20:38:34.206Z,14.02
2023-02-05T20:41:10.019Z,13.88
2023-02-05T20:43:36.808Z,13.88
2023-02-05T20:46:04.417Z,14.48
2023-02-05T20:48:31.207Z,15.20
2023-02-05T20:51:05.164Z,14.88
2023-02-05T20:53:31.814Z,14.05
2023-02-05T20:56:03.372Z,15.35
2023-02-05T20:58:31.414Z,14.80
2023-02-05T21:01:07.091Z,15.45
2023-02-05T21:03:34.397Z,15.18
2023-02-05T21:06:01.384Z,14.63
2023-02-05T21:08:28.218Z,14.40
2023-02-05T21:10:55.084Z,14.38
2023-02-05T21:13:21.801Z,16.20
2023-02-05T21:15:56.520Z,14.93
2023-02-05T21:18:23.809Z,14.52
2023-02-05T21:20:51.095Z,13.75
2023-02-05T21:23:18.441Z,13.60
2023-02-05T21:25:45.949Z,13.48
2023-02-05T21:28:13.200Z,14.63
2023-02-05T21:30:40.553Z,15.15
2023-02-05T21:33:07.295Z,14.85
2023-02-05T21:35:37.617Z,14.45
2023-02-05T21:38:04.456Z,14.40
2023-02-05T21:40:31.190Z,15.00
2023-02-05T21:42:57.886Z,14.52
2023-02-05T21:45:24.647Z,15.80
2023-02-05T21:47:51.625Z,15.77
2023-02-05T21:50:18.546Z,16.50
2023-02-05T21:52:45.320Z,16.77
2023-02-05T21:55:12.064Z,16.77
2023-02-05T21:57:40.288Z,18.35
2023-02-05T22:00:07.423Z,17.25
2023-02-05T22:02:35.120Z,18.05
2023-02-05T22:05:01.995Z,17.85
2023-02-05T22:07:28.772Z,19.92
2023-02-05T22:09:55.591Z,19.23
2023-02-05T22:12:22.374Z,21.42
2023-02-05T22:14:49.251Z,18.92
2023-02-05T22:17:15.976Z,18.63
2023-02-05T22:19:43.455Z,19.77
2023-02-05T22:22:10.811Z,18.13
2023-02-05T22:24:37.742Z,19.63
2023-02-05T22:27:05.181Z,20.05
2023-02-05T22:29:32.141Z,21.00
2023-02-05T22:31:58.899Z,19.48
2023-02-05T22:34:25.772Z,21.58
2023-02-05T22:36:52.524Z,21.90
2023-02-05T22:39:19.310Z,22.52
2023-02-05T22:41:46.061Z,22.05
2023-02-05T22:44:13.068Z,21.63
2023-02-05T22:46:44.348Z,23.20
2023-02-05T22:49:12.359Z,22.70
2023-02-05T22:51:39.843Z,23.63
2023-02-05T22:54:07.473Z,23.60
2023-02-05T22:56:34.432Z,25.27
2023-02-05T22:59:03.295Z,24.90
2023-02-05T23:01:35.026Z,25.38
2023-02-05T23:04:02.874Z,25.40
2023-02-05T23:06:32.049Z,24.98
2023-02-05T23:09:04.052Z,27.75
2023-02-05T23:11:31.875Z,28.25
2023-02-05T23:13:59.728Z,26.33
2023-02-05T23:16:28.874Z,28.88
2023-02-05T23:18:57.953Z,29.65
2023-02-05T23:21:26.777Z,28.02
2023-02-05T23:23:53.694Z,29.40
2023-02-05T23:26:31.713Z,30.08
2023-02-05T23:28:58.535Z,30.40
2023-02-05T23:31:26.136Z,28.45
2023-02-05T23:33:53.423Z,29.20
2023-02-05T23:36:20.144Z,29.13
2023-02-05T23:38:47.315Z,29.67
2023-02-05T23:41:14.520Z,30.27
2023-02-05T23:43:41.264Z,30.23
2023-02-05T23:46:08.375Z,31.83
2023-02-05T23:48:35.489Z,28.85
2023-02-05T23:51:02.199Z,29.85
2023-02-05T23:53:28.942Z,30.52
2023-02-05T23:55:55.675Z,30.92
2023-02-05T23:58:28.027Z,30.48
